createdAt,value
2018-08-28T00:00:44.699Z,59.80
2018-08-28T00:03:12.955Z,59.80
2018-08-28T00:05:41.279Z,59.80
2018-08-28T00:08:09.674Z,59.80
2018-08-28T00:10:37.923Z,59.70
2018-08-28T00:13:07.249Z,59.70
2018-08-28T00:15:35.498Z,59.80
2018-08-28T00:18:03.743Z,59.70
2018-08-28T00:20:32.447Z,59.70
2018-08-28T00:23:00.694Z,59.70
2018-08-28T00:25:29.022Z,59.70
2018-08-28T00:27:57.378Z,59.70
2018-08-28T00:30:25.625Z,59.70
2018-08-28T00:32:53.938Z,59.70
2018-08-28T00:35:22.412Z,59.70
2018-08-28T00:37:50.722Z,59.70
2018-08-28T00:40:18.962Z,59.60
2018-08-28T00:42:47.762Z,59.60
2018-08-28T00:45:16.078Z,59.70
2018-08-28T00:47:44.335Z,59.70
2018-08-28T00:50:12.633Z,59.60
2018-08-28T00:52:40.974Z,59.70
2018-08-28T00:55:09.405Z,59.60
2018-08-28T00:57:37.906Z,59.60
2018-08-28T01:00:06.653Z,59.70
2018-08-28T01:02:34.890Z,59.60
2018-08-28T01:05:03.942Z,59.60
2018-08-28T01:07:32.194Z,59.60
2018-08-28T01:10:00.431Z,59.60
2018-08-28T01:12:29.022Z,59.60
2018-08-28T01:14:57.721Z,59.60
2018-08-28T01:17:25.967Z,59.60
2018-08-28T01:19:54.670Z,59.50
2018-08-28T01:22:22.978Z,59.60
2018-08-28T01:24:51.357Z,59.50
2018-08-28T01:27:20.546Z,59.50
2018-08-28T01:29:48.798Z,59.50
2018-08-28T01:32:17.141Z,59.50
2018-08-28T01:34:45.671Z,59.50
2018-08-28T01:37:14.161Z,59.50
2018-08-28T01:39:42.352Z,59.50
2018-08-28T01:42:11.007Z,59.50
2018-08-28T01:44:39.254Z,59.50
2018-08-28T01:47:07.509Z,59.50
2018-08-28T01:49:36.459Z,59.50
2018-08-28T01:52:04.695Z,59.50
2018-08-28T01:54:32.986Z,59.50
2018-08-28T01:57:01.277Z,60.00
2018-08-28T01:59:29.597Z,59.50
2018-08-28T02:01:57.909Z,59.40
2018-08-28T02:04:28.582Z,59.40
2018-08-28T02:06:56.885Z,59.40
2018-08-28T02:09:25.110Z,59.40
2018-08-28T02:11:53.611Z,59.40
2018-08-28T02:14:21.845Z,59.40
2018-08-28T02:16:50.128Z,59.40
2018-08-28T02:19:19.050Z,59.40
2018-08-28T02:21:47.274Z,59.40
2018-08-28T02:24:15.502Z,59.40
2018-08-28T02:26:45.221Z,59.40
2018-08-28T02:29:13.442Z,59.40
2018-08-28T02:31:41.678Z,59.30
2018-08-28T02:34:11.682Z,59.40
2018-08-28T02:36:39.929Z,59.40
2018-08-28T02:39:09.401Z,59.30
2018-08-28T02:41:38.167Z,59.40
2018-08-28T02:44:06.542Z,59.40
2018-08-28T02:46:34.778Z,59.40
2018-08-28T02:49:04.326Z,59.30
2018-08-28T02:51:32.585Z,59.30
2018-08-28T02:54:00.827Z,59.30
2018-08-28T02:56:29.225Z,59.20
2018-08-28T02:58:57.890Z,59.30
2018-08-28T03:01:26.154Z,59.30
2018-08-28T03:03:54.586Z,59.20
2018-08-28T03:06:23.133Z,59.20
2018-08-28T03:08:51.447Z,59.20
2018-08-28T03:11:20.733Z,59.40
2018-08-28T03:13:49.823Z,59.20
2018-08-28T03:16:18.070Z,59.20
2018-08-28T03:18:46.356Z,59.90
2018-08-28T03:21:14.699Z,59.20
2018-08-28T03:23:42.930Z,59.20
2018-08-28T03:26:11.652Z,59.20
2018-08-28T03:28:40.062Z,59.20
2018-08-28T03:31:08.414Z,59.20
2018-08-28T03:33:38.189Z,59.20
2018-08-28T03:36:06.426Z,59.20
2018-08-28T03:38:34.671Z,59.20
2018-08-28T03:41:03.963Z,59.20
2018-08-28T03:43:32.188Z,59.20
2018-08-28T03:46:00.511Z,59.20
2018-08-28T03:48:29.714Z,59.20
2018-08-28T03:50:57.955Z,59.20
2018-08-28T03:53:26.269Z,59.20
2018-08-28T03:55:54.967Z,59.20
2018-08-28T03:58:23.205Z,59.20
2018-08-28T04:00:51.507Z,59.20
2018-08-28T04:03:20.348Z,59.20
2018-08-28T04:05:48.573Z,59.20
2018-08-28T04:08:16.884Z,59.20
2018-08-28T04:10:46.154Z,59.20
2018-08-28T04:13:14.520Z,59.20
2018-08-28T04:15:44.182Z,59.20
2018-08-28T04:18:12.608Z,59.10
2018-08-28T04:20:40.919Z,59.20
2018-08-28T04:23:09.234Z,59.10
2018-08-28T04:25:37.534Z,59.10
2018-08-28T04:28:05.791Z,59.10
2018-08-28T04:30:34.218Z,59.10
2018-08-28T04:33:03.202Z,59.10
2018-08-28T04:35:31.523Z,59.10
2018-08-28T04:37:59.761Z,59.10
2018-08-28T04:40:28.549Z,59.10
2018-08-28T04:42:56.788Z,59.10
2018-08-28T04:45:25.107Z,59.00
2018-08-28T04:47:53.682Z,59.80
2018-08-28T04:50:21.966Z,59.10
2018-08-28T04:52:50.194Z,59.20
2018-08-28T04:55:19.237Z,59.30
2018-08-28T04:57:47.546Z,59.50
2018-08-28T05:00:15.884Z,59.50
2018-08-28T05:02:44.395Z,59.40
2018-08-28T05:05:12.638Z,59.60
2018-08-28T05:07:40.867Z,59.60
2018-08-28T05:10:09.505Z,59.50
2018-08-28T05:12:37.815Z,59.50
2018-08-28T05:15:10.974Z,59.60
2018-08-28T05:17:39.214Z,59.70
2018-08-28T05:20:09.086Z,59.60
2018-08-28T05:22:37.816Z,59.70
2018-08-28T05:25:06.101Z,59.60
2018-08-28T05:27:34.318Z,59.80
2018-08-28T05:30:03.107Z,59.80
2018-08-28T05:32:31.337Z,59.80
2018-08-28T05:34:59.673Z,59.60
2018-08-28T05:37:28.382Z,59.40
2018-08-28T05:39:56.621Z,59.30
2018-08-28T05:42:24.851Z,59.20
2018-08-28T05:44:53.443Z,59.20
2018-08-28T05:47:21.671Z,59.90
2018-08-28T05:49:50.008Z,59.30
2018-08-28T05:52:18.719Z,59.30
2018-08-28T05:54:46.959Z,59.30
2018-08-28T05:57:15.262Z,59.20
2018-08-28T05:59:44.063Z,59.30
2018-08-28T06:02:12.377Z,59.20
2018-08-28T06:04:40.685Z,59.20
2018-08-28T06:07:09.410Z,59.20
2018-08-28T06:09:37.639Z,59.20
2018-08-28T06:12:06.110Z,59.20
2018-08-28T06:14:35.930Z,59.30
2018-08-28T06:17:05.407Z,59.20
2018-08-28T06:19:33.731Z,59.10
2018-08-28T06:22:02.107Z,59.10
2018-08-28T06:24:30.327Z,59.20
2018-08-28T06:26:58.554Z,59.10
2018-08-28T06:29:26.968Z,59.50
2018-08-28T06:31:55.195Z,59.20
2018-08-28T06:34:23.506Z,59.10
2018-08-28T06:36:52.482Z,59.10
2018-08-28T06:39:20.811Z,59.10
2018-08-28T06:41:49.226Z,59.80
2018-08-28T06:44:17.862Z,59.10
2018-08-28T06:46:46.083Z,59.10
2018-08-28T06:49:14.327Z,59.10
2018-08-28T06:51:43.309Z,59.10
2018-08-28T06:54:11.642Z,59.10
2018-08-28T06:56:39.937Z,59.10
2018-08-28T06:59:08.645Z,59.10
2018-08-28T07:01:36.995Z,59.10
2018-08-28T07:04:05.349Z,59.10
2018-08-28T07:06:33.729Z,59.10
2018-08-28T07:09:01.957Z,59.10
2018-08-28T07:11:30.215Z,59.10
2018-08-28T07:14:00.037Z,59.10
2018-08-28T07:16:28.274Z,59.10
2018-08-28T07:18:57.951Z,59.10
2018-08-28T07:21:26.225Z,59.10
2018-08-28T07:23:54.484Z,59.10
2018-08-28T07:26:22.954Z,59.10
2018-08-28T07:28:51.194Z,59.10
2018-08-28T07:31:19.549Z,59.10
2018-08-28T07:33:48.706Z,59.10
2018-08-28T07:36:16.930Z,59.10
2018-08-28T07:38:45.159Z,59.10
2018-08-28T07:41:13.765Z,59.10
2018-08-28T07:43:41.983Z,59.10
2018-08-28T07:46:10.463Z,59.10
2018-08-28T07:48:39.199Z,59.10
2018-08-28T07:51:07.525Z,59.10
2018-08-28T07:53:35.765Z,59.10
2018-08-28T07:56:04.842Z,59.10
2018-08-28T07:58:33.077Z,59.10
2018-08-28T08:01:01.447Z,59.10
2018-08-28T08:03:32.129Z,59.10
2018-08-28T08:06:00.454Z,59.10
2018-08-28T08:08:28.680Z,59.10
2018-08-28T08:10:57.170Z,59.10
2018-08-28T08:13:25.446Z,59.10
2018-08-28T08:15:53.850Z,59.10
2018-08-28T08:18:22.728Z,59.10
2018-08-28T08:27:38.574Z,59.10
2018-08-28T08:30:07.167Z,59.20
2018-08-28T08:32:35.401Z,59.10
2018-08-28T08:35:04.098Z,59.10
2018-08-28T08:37:32.427Z,59.10
2018-08-28T08:40:00.743Z,59.10
2018-08-28T08:42:29.438Z,59.10
2018-08-28T08:44:57.747Z,59.10
2018-08-28T08:47:25.970Z,59.10
2018-08-28T08:49:54.786Z,59.10
2018-08-28T08:52:23.090Z,59.70
2018-08-28T08:54:51.546Z,59.10
2018-08-28T08:57:19.951Z,59.10
2018-08-28T08:59:48.244Z,59.20
2018-08-28T09:02:16.486Z,59.20
2018-08-28T09:04:45.383Z,59.20
2018-08-28T09:07:13.621Z,59.20
2018-08-28T09:09:41.845Z,59.20
2018-08-28T09:12:10.742Z,59.30
2018-08-28T09:14:39.106Z,59.20
2018-08-28T09:17:07.510Z,59.20
2018-08-28T09:19:36.454Z,59.50
2018-08-28T09:22:05.177Z,59.20
2018-08-28T09:24:33.569Z,59.20
2018-08-28T09:27:03.239Z,59.20
2018-08-28T09:29:31.559Z,59.20
2018-08-28T09:31:59.951Z,59.20
2018-08-28T09:34:28.635Z,59.20
2018-08-28T09:36:56.878Z,59.20
2018-08-28T09:39:25.116Z,59.20
2018-08-28T09:41:53.818Z,59.20
2018-08-28T09:44:22.136Z,59.20
2018-08-28T09:46:50.468Z,59.20
2018-08-28T09:49:19.880Z,59.20
2018-08-28T09:51:48.313Z,59.20
2018-08-28T09:54:16.656Z,59.30
2018-08-28T09:56:45.673Z,59.20
2018-08-28T09:59:13.887Z,59.30
2018-08-28T10:01:43.423Z,59.30
2018-08-28T10:04:12.690Z,59.40
2018-08-28T10:06:40.957Z,59.40
2018-08-28T10:09:12.046Z,59.50
2018-08-28T10:11:40.569Z,59.50
2018-08-28T10:14:09.564Z,59.50
2018-08-28T10:16:38.198Z,59.50
2018-08-28T10:19:06.616Z,59.50
2018-08-28T10:21:34.881Z,59.50
2018-08-28T10:24:05.181Z,59.50
2018-08-28T10:26:33.456Z,59.50
2018-08-28T10:29:01.681Z,59.60
2018-08-28T10:31:32.163Z,59.50
2018-08-28T10:34:00.398Z,59.60
2018-08-28T10:36:28.643Z,59.50
2018-08-28T10:38:57.401Z,59.60
2018-08-28T10:41:25.635Z,60.30
2018-08-28T10:43:53.895Z,59.80
2018-08-28T10:46:22.604Z,60.00
2018-08-28T10:48:50.770Z,60.00
2018-08-28T10:51:19.063Z,60.00
2018-08-28T10:53:48.802Z,61.00
2018-08-28T10:56:17.128Z,60.10
2018-08-28T10:58:45.473Z,60.20
2018-08-28T11:01:14.034Z,60.40
2018-08-28T11:03:44.311Z,60.30
2018-08-28T11:06:12.637Z,60.30
2018-08-28T11:08:41.241Z,60.40
2018-08-28T11:11:09.593Z,60.40
2018-08-28T11:13:37.840Z,60.50
2018-08-28T11:16:06.464Z,60.90
2018-08-28T11:18:34.763Z,60.80
2018-08-28T11:21:03.031Z,61.00
2018-08-28T11:23:31.774Z,61.10
2018-08-28T11:26:01.444Z,61.30
2018-08-28T11:28:29.686Z,62.30
2018-08-28T11:30:58.026Z,62.80
2018-08-28T11:33:26.258Z,63.40
2018-08-28T11:35:55.035Z,64.40
2018-08-28T11:38:23.294Z,64.40
2018-08-28T11:40:51.578Z,64.70
2018-08-28T11:43:21.234Z,65.10
2018-08-28T11:45:49.566Z,64.40
2018-08-28T11:48:17.818Z,64.40
2018-08-28T11:50:46.218Z,64.30
2018-08-28T11:53:14.543Z,64.50
2018-08-28T11:55:42.798Z,65.70
2018-08-28T11:58:11.371Z,65.10
2018-08-28T12:00:39.718Z,65.10
2018-08-28T12:03:08.018Z,64.70
2018-08-28T12:05:37.539Z,64.10
2018-08-28T12:08:05.879Z,63.90
2018-08-28T12:10:34.217Z,63.90
2018-08-28T12:13:03.094Z,63.80
2018-08-28T12:15:31.311Z,63.60
2018-08-28T12:17:59.554Z,63.50
2018-08-28T12:20:28.118Z,63.00
2018-08-28T12:22:56.433Z,62.90
2018-08-28T12:25:24.678Z,62.80
2018-08-28T12:27:55.168Z,62.70
2018-08-28T12:30:23.406Z,62.80
2018-08-28T12:32:51.681Z,62.60
2018-08-28T12:35:20.295Z,62.90
2018-08-28T12:37:48.637Z,63.40
2018-08-28T12:40:16.885Z,64.20
2018-08-28T12:42:45.383Z,64.60
2018-08-28T12:45:13.642Z,64.20
2018-08-28T12:47:41.877Z,64.00
2018-08-28T12:50:11.534Z,64.10
2018-08-28T12:52:39.845Z,64.60
2018-08-28T12:55:08.165Z,64.40
2018-08-28T12:57:36.458Z,63.90
2018-08-28T13:00:04.751Z,64.20
2018-08-28T13:02:33.084Z,63.70
2018-08-28T13:05:01.714Z,63.70
2018-08-28T13:07:30.074Z,64.10
2018-08-28T13:09:58.189Z,63.50
2018-08-28T13:12:26.788Z,63.50
2018-08-28T13:14:55.257Z,63.60
2018-08-28T13:17:23.490Z,63.60
2018-08-28T13:19:52.296Z,63.20
2018-08-28T13:22:20.544Z,63.10
2018-08-28T13:24:48.871Z,63.70
2018-08-28T13:27:18.131Z,64.00
2018-08-28T13:29:47.362Z,64.30
2018-08-28T13:32:15.614Z,64.40
2018-08-28T13:34:44.126Z,64.20
2018-08-28T13:37:12.494Z,64.20
2018-08-28T13:39:40.803Z,64.10
2018-08-28T13:42:09.074Z,63.90
2018-08-28T13:44:37.362Z,63.80
2018-08-28T13:47:05.698Z,63.60
2018-08-28T13:49:34.601Z,63.20
2018-08-28T13:52:03.352Z,63.10
2018-08-28T13:54:31.809Z,63.30
2018-08-28T13:57:00.542Z,63.60
2018-08-28T13:59:28.939Z,63.80
2018-08-28T14:01:57.324Z,63.70
2018-08-28T14:04:27.930Z,63.30
2018-08-28T14:06:56.174Z,63.20
2018-08-28T14:09:24.416Z,63.00
2018-08-28T14:11:52.970Z,63.00
2018-08-28T14:14:21.283Z,62.90
2018-08-28T14:16:49.510Z,62.80
2018-08-28T14:19:18.110Z,62.80
2018-08-28T14:21:46.358Z,62.50
2018-08-28T14:24:14.714Z,62.30
2018-08-28T14:26:43.967Z,62.20
2018-08-28T14:29:12.352Z,62.10
2018-08-28T14:31:40.627Z,62.00
2018-08-28T14:34:09.197Z,62.20
2018-08-28T14:36:37.503Z,62.00
2018-08-28T14:39:06.740Z,62.10
2018-08-28T14:41:35.800Z,62.30
2018-08-28T14:44:04.202Z,62.40
2018-08-28T14:46:32.907Z,62.50
2018-08-28T14:49:01.427Z,62.50
2018-08-28T14:51:29.729Z,62.60
2018-08-28T14:53:57.923Z,62.80
2018-08-28T14:56:26.293Z,62.70
2018-08-28T14:58:54.581Z,62.60
2018-08-28T15:01:22.839Z,62.80
2018-08-28T15:03:51.516Z,62.70
2018-08-28T15:06:20.467Z,62.80
2018-08-28T15:08:48.726Z,62.80
2018-08-28T15:11:17.756Z,62.90
2018-08-28T15:13:46.037Z,62.90
2018-08-28T15:16:14.372Z,63.10
2018-08-28T15:18:42.998Z,63.40
2018-08-28T15:21:11.370Z,63.40
2018-08-28T15:23:39.686Z,64.20
2018-08-28T15:26:08.582Z,64.40
2018-08-28T15:28:36.867Z,63.60
2018-08-28T15:31:05.654Z,63.40
2018-08-28T15:33:34.863Z,64.40
2018-08-28T15:36:03.226Z,64.40
2018-08-28T15:38:31.504Z,64.40
2018-08-28T15:41:00.046Z,64.50
2018-08-28T15:43:28.375Z,65.10
2018-08-28T15:45:56.710Z,64.00
2018-08-28T15:48:25.326Z,64.00
2018-08-28T15:50:53.575Z,64.10
2018-08-28T15:53:21.863Z,63.70
2018-08-28T15:55:50.721Z,63.40
2018-08-28T15:58:19.271Z,63.50
2018-08-28T16:00:47.709Z,63.70
2018-08-28T16:03:16.787Z,63.30
2018-08-28T16:05:45.196Z,63.40
2018-08-28T16:08:13.848Z,63.30
2018-08-28T16:10:43.395Z,63.40
2018-08-28T16:13:11.654Z,63.40
2018-08-28T16:15:39.952Z,63.60
2018-08-28T16:18:08.414Z,63.80
2018-08-28T16:20:36.850Z,64.00
2018-08-28T16:23:07.581Z,64.10
2018-08-28T16:25:36.451Z,64.20
2018-08-28T16:28:04.707Z,64.30
2018-08-28T16:30:33.274Z,64.30
2018-08-28T16:33:01.665Z,64.50
2018-08-28T16:35:29.918Z,64.50
2018-08-28T16:37:58.971Z,64.40
2018-08-28T16:40:27.294Z,64.50
2018-08-28T16:42:55.739Z,64.40
2018-08-28T16:45:23.935Z,64.30
2018-08-28T16:47:52.195Z,64.30
2018-08-28T16:50:20.527Z,64.10
2018-08-28T16:52:49.196Z,64.80
2018-08-28T16:55:17.446Z,63.90
2018-08-28T16:57:45.689Z,63.50
2018-08-28T17:00:14.916Z,63.40
2018-08-28T17:02:43.150Z,63.20
2018-08-28T17:05:13.042Z,63.20
2018-08-28T17:07:41.472Z,63.10
2018-08-28T17:10:09.835Z,63.60
2018-08-28T17:12:38.107Z,63.30
2018-08-28T17:15:06.955Z,63.50
2018-08-28T17:17:35.237Z,63.40
2018-08-28T17:20:03.807Z,63.60
2018-08-28T17:22:33.129Z,63.70
2018-08-28T17:25:01.459Z,64.10
2018-08-28T17:27:29.707Z,63.90
2018-08-28T17:29:58.276Z,63.50
2018-08-28T17:32:26.544Z,64.80
2018-08-28T17:34:54.899Z,64.80
2018-08-28T17:37:23.530Z,64.00
2018-08-28T17:39:51.818Z,64.70
2018-08-28T17:42:20.075Z,64.70
2018-08-28T17:44:48.543Z,63.90
2018-08-28T17:47:16.902Z,63.90
2018-08-28T17:49:45.287Z,63.70
2018-08-28T17:52:13.880Z,63.50
2018-08-28T17:54:42.162Z,63.60
2018-08-28T17:57:11.816Z,63.20
2018-08-28T17:59:40.254Z,63.10
2018-08-28T18:02:08.527Z,63.30
2018-08-28T18:04:36.887Z,63.90
2018-08-28T18:07:06.427Z,64.20
2018-08-28T18:09:34.793Z,64.50
2018-08-28T18:12:04.282Z,64.40
2018-08-28T18:14:33.699Z,64.40
2018-08-28T18:17:02.092Z,64.60
2018-08-28T18:19:30.442Z,64.60
2018-08-28T18:21:59.057Z,64.50
2018-08-28T18:24:27.305Z,64.40
2018-08-28T18:26:55.672Z,63.80
2018-08-28T18:29:24.790Z,63.60
2018-08-28T18:31:53.093Z,63.50
2018-08-28T18:34:21.382Z,63.30
2018-08-28T18:36:49.948Z,63.50
2018-08-28T18:39:18.299Z,63.20
2018-08-28T18:41:47.279Z,63.10
2018-08-28T18:44:15.796Z,63.20
2018-08-28T18:46:44.260Z,63.10
2018-08-28T18:49:12.541Z,63.10
2018-08-28T18:51:43.384Z,63.20
2018-08-28T18:54:11.698Z,63.20
2018-08-28T18:56:40.923Z,63.20
2018-08-28T18:59:09.547Z,63.20
2018-08-28T19:01:37.861Z,63.20
2018-08-28T19:04:06.378Z,64.40
2018-08-28T19:06:34.786Z,65.00
2018-08-28T19:09:03.181Z,65.40
2018-08-28T19:11:31.628Z,65.00
2018-08-28T19:14:02.703Z,64.80
2018-08-28T19:16:31.074Z,65.10
2018-08-28T19:18:59.441Z,66.60
2018-08-28T19:21:27.751Z,66.60
2018-08-28T19:23:56.051Z,65.70
2018-08-28T19:26:24.502Z,65.60
2018-08-28T19:28:53.179Z,65.00
2018-08-28T19:31:21.480Z,64.80
2018-08-28T19:33:49.854Z,65.50
2018-08-28T19:36:19.744Z,65.20
2018-08-28T19:38:48.288Z,65.70
2018-08-28T19:41:16.749Z,64.90
2018-08-28T19:43:46.515Z,64.80
2018-08-28T19:46:14.874Z,64.70
2018-08-28T19:48:43.223Z,64.60
2018-08-28T19:51:11.760Z,64.60
2018-08-28T19:53:40.061Z,64.50
2018-08-28T19:56:08.303Z,64.80
2018-08-28T19:58:37.638Z,64.60
2018-08-28T20:01:06.187Z,64.60
2018-08-28T20:03:38.580Z,64.60
2018-08-28T20:06:06.892Z,64.50
2018-08-28T20:08:35.152Z,64.50
2018-08-28T20:11:03.535Z,64.20
2018-08-28T20:13:31.898Z,64.30
2018-08-28T20:16:00.907Z,64.20
2018-08-28T20:18:29.334Z,64.60
2018-08-28T20:20:58.348Z,64.40
2018-08-28T20:23:26.699Z,64.10
2018-08-28T20:25:55.023Z,64.20
2018-08-28T20:28:23.815Z,64.20
2018-08-28T20:30:52.068Z,64.10
2018-08-28T20:33:20.319Z,64.00
2018-08-28T20:35:48.868Z,64.00
2018-08-28T20:38:17.219Z,64.00
2018-08-28T20:40:45.461Z,64.00
2018-08-28T20:43:15.027Z,64.00
2018-08-28T20:45:43.270Z,63.90
2018-08-28T20:48:11.537Z,63.90
2018-08-28T20:50:39.952Z,63.90
2018-08-28T20:53:08.188Z,63.80
2018-08-28T20:55:36.575Z,63.80
2018-08-28T20:58:05.179Z,63.80
2018-08-28T21:00:35.799Z,63.70
2018-08-28T21:03:04.431Z,63.80
2018-08-28T21:05:32.758Z,63.70
2018-08-28T21:08:01.600Z,63.60
2018-08-28T21:10:31.154Z,63.50
2018-08-28T21:12:59.963Z,63.50
2018-08-28T21:15:28.160Z,63.50
2018-08-28T21:17:57.871Z,63.50
2018-08-28T21:20:26.212Z,63.50
2018-08-28T21:22:54.492Z,63.50
2018-08-28T21:25:23.891Z,63.50
2018-08-28T21:27:52.144Z,63.50
2018-08-28T21:30:20.408Z,63.40
2018-08-28T21:32:49.031Z,63.40
2018-08-28T21:35:17.282Z,63.40
2018-08-28T21:37:45.634Z,63.40
2018-08-28T21:40:13.941Z,63.30
2018-08-28T21:42:42.250Z,63.30
2018-08-28T21:45:10.520Z,63.30
2018-08-28T21:47:39.407Z,63.30
2018-08-28T21:50:07.716Z,63.20
2018-08-28T21:52:35.958Z,63.20
2018-08-28T21:55:04.542Z,63.20
2018-08-28T21:57:32.885Z,63.20
2018-08-28T22:00:01.149Z,63.20
2018-08-28T22:02:29.579Z,63.20
2018-08-28T22:04:58.026Z,63.20
2018-08-28T22:07:32.374Z,63.10
2018-08-28T22:10:00.706Z,63.10
2018-08-28T22:12:28.952Z,63.00
2018-08-28T22:14:57.630Z,62.90
2018-08-28T22:17:25.911Z,63.00
2018-08-28T22:19:55.730Z,62.90
2018-08-28T22:22:24.493Z,62.90
2018-08-28T22:24:52.746Z,62.90
2018-08-28T22:27:20.981Z,62.80
2018-08-28T22:29:50.551Z,62.70
2018-08-28T22:32:18.795Z,62.70
2018-08-28T22:34:47.103Z,62.70
2018-08-28T22:37:15.800Z,62.60
2018-08-28T22:39:44.163Z,62.60
2018-08-28T22:42:12.575Z,62.60
2018-08-28T22:44:40.883Z,62.50
2018-08-28T22:47:09.130Z,62.50
2018-08-28T22:49:37.450Z,62.40
2018-08-28T22:52:06.586Z,62.40
2018-08-28T22:54:34.827Z,62.40
2018-08-28T22:57:03.138Z,62.40
2018-08-28T22:59:31.539Z,62.40
2018-08-28T23:01:59.865Z,62.40
2018-08-28T23:04:29.601Z,62.30
2018-08-28T23:06:57.882Z,62.30
2018-08-28T23:09:26.121Z,62.20
2018-08-28T23:11:54.390Z,62.30
2018-08-28T23:14:22.732Z,62.30
2018-08-28T23:16:50.978Z,62.30
2018-08-28T23:19:19.473Z,62.20
2018-08-28T23:21:48.621Z,62.20
2018-08-28T23:24:16.886Z,62.10
2018-08-28T23:26:45.158Z,62.10
2018-08-28T23:29:13.421Z,62.10
2018-08-28T23:31:41.758Z,62.10
2018-08-28T23:34:10.108Z,62.00
2018-08-28T23:36:38.347Z,62.10
2018-08-28T23:39:07.054Z,62.10
2018-08-28T23:41:35.702Z,62.00
2018-08-28T23:44:04.123Z,62.00
2018-08-28T23:46:32.357Z,62.00
2018-08-28T23:49:00.817Z,62.00
2018-08-28T23:51:29.121Z,61.90
2018-08-28T23:53:57.357Z,61.90
2018-08-28T23:56:25.641Z,61.90
2018-08-28T23:58:53.893Z,61.90
